Time;durP1;ratioP1;P1;durP2;ratioP2;P2;SDS_P1;SDS_P2;PMS_P1;PMS_P2;Temp;Humidity;BMP_temperature;BMP_pressure;BME280_temperature;BME280_humidity;BME280_pressure;Samples;Min_cycle;Max_cycle;Signal;HPM_P1;HPM_P2
2021/05/29 00:02:00;;;;;;;0.70;0.70;;;;;;;10.55;100.00;100686.28;4806489;29;20053;-78
2021/05/29 00:05:06;;;;;;;4.10;1.10;;;;;;;10.53;100.00;100688.75;4806434;29;20121;-78
2021/05/29 00:08:10;;;;;;;5.18;1.77;;;;;;;10.52;100.00;100689.97;4795187;29;20046;-78
2021/05/29 00:11:15;;;;;;;1.48;0.85;;;;;;;10.49;100.00;100690.88;4806037;29;20062;-77
2021/05/29 00:14:18;;;;;;;3.33;1.38;;;;;;;10.45;100.00;100693.03;4806318;29;20045;-77
2021/05/29 00:17:21;;;;;;;4.28;0.70;;;;;;;10.40;100.00;100696.38;4806339;29;20416;-78
2021/05/29 00:20:25;;;;;;;1.75;1.23;;;;;;;10.41;100.00;100697.97;4806211;29;20504;-78
2021/05/29 00:23:28;;;;;;;3.35;1.33;;;;;;;10.40;100.00;100692.81;4806214;29;20059;-77
2021/05/29 00:26:32;;;;;;;1.35;0.95;;;;;;;10.38;100.00;100693.28;4806973;29;20057;-78
2021/05/29 00:29:35;;;;;;;1.10;0.63;;;;;;;10.36;100.00;100700.53;4824388;29;20045;-77
2021/05/29 00:32:39;;;;;;;2.33;0.55;;;;;;;10.35;100.00;100699.75;4824063;29;20054;-78
2021/05/29 00:35:43;;;;;;;2.47;0.70;;;;;;;10.33;100.00;100696.63;4824267;29;20045;-78
2021/05/29 00:43:13;;;;;;;2.42;1.05;;;;;;;10.29;100.00;100696.00;4824866;29;20058;-77
2021/05/29 00:46:17;;;;;;;5.25;1.77;;;;;;;10.30;100.00;100700.34;4823869;29;20047;-77
2021/05/29 00:49:20;;;;;;;2.15;0.65;;;;;;;10.28;100.00;100702.81;4823915;29;20050;-77
2021/05/29 00:52:24;;;;;;;3.65;1.30;;;;;;;10.28;100.00;100704.81;4823997;29;20408;-77
2021/05/29 00:55:28;;;;;;;1.55;1.05;;;;;;;10.28;100.00;100696.47;4824122;29;20404;-77
2021/05/29 00:58:31;;;;;;;3.30;0.82;;;;;;;10.22;100.00;100693.47;4823997;29;20049;-77
2021/05/29 01:01:34;;;;;;;0.68;0.52;;;;;;;10.22;100.00;100685.13;4824289;29;20387;-77
2021/05/29 01:04:39;;;;;;;1.10;0.57;;;;;;;10.23;100.00;100692.25;4823992;29;20050;-78
2021/05/29 01:07:52;;;;;;;1.92;0.88;;;;;;;10.25;100.00;100689.78;4824015;29;20376;-78
2021/05/29 01:10:56;;;;;;;1.58;0.90;;;;;;;10.26;100.00;100696.91;4824102;29;20050;-77
2021/05/29 01:14:00;;;;;;;0.98;0.32;;;;;;;10.24;100.00;100693.81;4823922;29;20049;-77
2021/05/29 01:17:04;;;;;;;4.22;1.10;;;;;;;10.22;100.00;100689.94;4823865;29;20053;-77
2021/05/29 01:20:09;;;;;;;5.03;0.80;;;;;;;10.21;100.00;100694.72;4823773;29;20045;-78
2021/05/29 01:23:13;;;;;;;1.42;0.57;;;;;;;10.20;100.00;100695.94;4826316;29;20057;-78
2021/05/29 01:26:16;;;;;;;1.63;1.23;;;;;;;10.19;100.00;100701.97;4827407;29;20117;-78
2021/05/29 01:29:20;;;;;;;1.63;0.55;;;;;;;10.18;100.00;100712.31;4798082;29;20038;-77
2021/05/29 01:32:32;;;;;;;3.05;0.75;;;;;;;10.21;100.00;100703.06;4810109;29;20069;-77
2021/05/29 01:35:36;;;;;;;3.20;1.27;;;;;;;10.22;100.00;100704.59;4809533;29;20049;-77
2021/05/29 01:38:40;;;;;;;0.70;0.60;;;;;;;10.22;100.00;100701.81;4797784;29;20126;-77
2021/05/29 01:41:45;;;;;;;3.50;1.23;;;;;;;10.23;100.00;100713.72;4808944;29;20070;-77
2021/05/29 01:44:49;;;;;;;1.58;0.95;;;;;;;10.25;100.00;100714.84;4808907;29;20054;-77
2021/05/29 01:47:52;;;;;;;3.22;0.88;;;;;;;10.27;100.00;100720.72;4809022;29;20433;-77
2021/05/29 01:50:58;;;;;;;1.27;0.60;;;;;;;10.25;100.00;100714.84;4808968;29;20054;-77
2021/05/29 01:54:01;;;;;;;6.65;1.98;;;;;;;10.28;100.00;100727.09;4808682;29;20077;-77
2021/05/29 01:57:06;;;;;;;4.18;1.85;;;;;;;10.28;100.00;100725.09;4808470;29;20045;-76
2021/05/29 02:00:10;;;;;;;2.88;0.80;;;;;;;10.28;100.00;100722.28;4810135;29;20057;-78
2021/05/29 02:03:14;;;;;;;1.55;0.70;;;;;;;10.28;100.00;100722.28;4811536;29;20073;-81
2021/05/29 02:06:17;;;;;;;3.03;0.40;;;;;;;10.26;100.00;100730.31;4809011;29;20065;-80
2021/05/29 02:09:21;;;;;;;2.60;0.73;;;;;;;10.22;100.00;100720.53;4797468;29;20038;-77
2021/05/29 02:12:25;;;;;;;3.60;1.05;;;;;;;10.20;100.00;100732.09;4797507;29;20381;-77
2021/05/29 02:15:34;;;;;;;1.70;0.43;;;;;;;10.17;100.00;100727.47;4797400;29;20102;-77
2021/05/29 02:18:39;;;;;;;1.75;0.88;;;;;;;10.14;100.00;100733.91;4808491;29;20046;-77
2021/05/29 02:21:43;;;;;;;2.65;1.05;;;;;;;10.11;100.00;100732.06;4807914;29;20054;-83
2021/05/29 02:24:46;;;;;;;1.23;0.60;;;;;;;10.09;100.00;100734.47;4791744;29;20061;-76
2021/05/29 02:27:50;;;;;;;4.95;1.23;;;;;;;10.09;100.00;100731.69;4796388;29;20054;-78
2021/05/29 02:30:53;;;;;;;1.10;0.88;;;;;;;10.10;100.00;100738.81;4808342;29;20074;-79
2021/05/29 02:33:57;;;;;;;3.53;1.13;;;;;;;10.08;100.00;100730.13;4796912;29;20061;-78
2021/05/29 02:37:00;;;;;;;1.95;1.30;;;;;;;10.09;100.00;100734.47;4807945;29;20046;-76
2021/05/29 02:40:05;;;;;;;1.17;0.93;;;;;;;10.11;100.00;100729.28;4808175;29;20069;-76
2021/05/29 02:43:08;;;;;;;1.73;0.75;;;;;;;10.15;100.00;100741.06;4808098;29;20054;-77
2021/05/29 02:46:11;;;;;;;1.30;0.90;;;;;;;10.16;100.00;100748.16;4808053;29;20050;-81
2021/05/29 02:49:16;;;;;;;1.75;0.88;;;;;;;10.17;100.00;100735.81;4808139;29;20495;-78
2021/05/29 02:52:19;;;;;;;2.05;0.73;;;;;;;10.17;100.00;100746.94;4796546;29;20061;-78
2021/05/29 02:55:23;;;;;;;1.40;0.95;;;;;;;10.18;100.00;100747.72;4807969;29;20388;-78
2021/05/29 02:58:26;;;;;;;2.30;0.73;;;;;;;10.20;100.00;100742.50;4807561;29;20046;-77
2021/05/29 03:01:30;;;;;;;3.55;1.35;;;;;;;10.22;100.00;100742.81;4807681;29;20396;-78
2021/05/29 03:04:34;;;;;;;0.98;0.88;;;;;;;10.20;100.00;100742.50;4807400;29;20528;-78
2021/05/29 03:07:37;;;;;;;0.77;0.40;;;;;;;10.22;100.00;100751.91;4807262;29;20042;-78
2021/05/29 03:10:42;;;;;;;6.40;1.17;;;;;;;10.22;100.00;100749.13;4807239;29;20042;-78
2021/05/29 03:13:48;;;;;;;2.53;0.70;;;;;;;10.25;100.00;100759.38;4807351;29;20054;-78
2021/05/29 03:16:51;;;;;;;2.03;0.80;;;;;;;10.27;100.00;100759.72;4796123;29;20050;-78
2021/05/29 03:19:55;;;;;;;2.08;0.80;;;;;;;10.29;100.00;100762.81;4807185;29;20054;-78
2021/05/29 03:22:58;;;;;;;2.08;0.85;;;;;;;10.31;100.00;100765.91;4807055;29;20069;-78
2021/05/29 03:26:02;;;;;;;1.40;0.68;;;;;;;10.34;100.00;100764.25;4807161;29;20128;-78
2021/05/29 03:29:06;;;;;;;4.55;1.17;;;;;;;10.38;100.00;100764.88;4789028;30;20050;-78
2021/05/29 03:32:10;;;;;;;1.88;1.05;;;;;;;10.41;100.00;100764.78;4789233;30;20046;-78
2021/05/29 03:35:14;;;;;;;4.72;1.50;;;;;;;10.43;100.00;100767.09;4789261;30;20050;-78
2021/05/29 03:38:19;;;;;;;1.85;0.90;;;;;;;10.44;100.00;100769.44;4789280;30;20066;-78
2021/05/29 03:41:23;;;;;;;1.00;0.57;;;;;;;10.42;100.00;100766.31;4788829;30;20523;-78
2021/05/29 03:44:27;;;;;;;3.63;0.73;;;;;;;10.40;100.00;100766.00;4788374;29;20515;-78
2021/05/29 03:47:30;;;;;;;1.88;0.73;;;;;;;10.40;100.00;100768.78;4788736;30;20046;-78
2021/05/29 03:50:38;;;;;;;1.10;0.80;;;;;;;10.40;100.00;100768.78;4788661;30;20389;-78
2021/05/29 03:53:42;;;;;;;2.25;0.77;;;;;;;10.41;100.00;100767.56;4788715;30;20043;-78
2021/05/29 03:56:45;;;;;;;9.02;0.63;;;;;;;10.40;100.00;100774.34;4788626;30;20068;-78
2021/05/29 03:59:49;;;;;;;8.75;1.33;;;;;;;10.41;100.00;100778.72;4788673;30;20405;-79
2021/05/29 04:02:52;;;;;;;2.05;0.68;;;;;;;10.43;100.00;100781.81;4788433;30;20066;-78
2021/05/29 04:05:55;;;;;;;3.45;1.55;;;;;;;10.43;100.00;100775.47;4777313;30;20042;-78
2021/05/29 04:08:59;;;;;;;2.47;1.52;;;;;;;10.44;100.00;100775.00;4787894;30;20046;-78
2021/05/29 04:12:03;;;;;;;3.00;0.70;;;;;;;10.45;100.00;100782.13;4788354;30;20068;-78
2021/05/29 04:15:08;;;;;;;3.92;0.90;;;;;;;10.45;100.00;100790.50;4788384;30;20069;-79
2021/05/29 04:18:12;;;;;;;2.25;0.73;;;;;;;10.45;100.00;100778.56;4787919;30;20045;-78
2021/05/29 04:21:16;;;;;;;3.28;1.13;;;;;;;10.48;100.00;100784.00;4787862;30;20074;-78
2021/05/29 04:24:20;;;;;;;1.33;1.15;;;;;;;10.50;100.00;100789.13;4787390;30;20058;-78
2021/05/29 04:27:23;;;;;;;1.40;1.15;;;;;;;10.50;100.00;100791.91;4802123;29;20049;-78
2021/05/29 04:30:29;;;;;;;5.68;1.42;;;;;;;10.52;100.00;100793.03;4824387;29;20061;-78
2021/05/29 04:33:33;;;;;;;2.88;0.75;;;;;;;10.54;100.00;100795.34;4824281;29;20519;-78
2021/05/29 04:36:36;;;;;;;1.13;0.88;;;;;;;10.55;100.00;100792.09;4824254;29;20049;-78
2021/05/29 04:39:39;;;;;;;4.07;0.90;;;;;;;10.61;100.00;100790.28;4812872;29;20049;-81
2021/05/29 04:42:43;;;;;;;3.85;1.40;;;;;;;10.66;100.00;100792.50;4813160;29;20062;-81
2021/05/29 04:45:48;;;;;;;1.60;0.93;;;;;;;10.70;100.00;100797.94;4824255;29;20061;-81
2021/05/29 04:48:52;;;;;;;6.50;1.63;;;;;;;10.75;100.00;100796.56;4824229;29;20049;-81
2021/05/29 04:51:57;;;;;;;2.15;1.13;;;;;;;10.82;100.00;100801.91;4824365;29;20045;-81
2021/05/29 04:55:00;;;;;;;3.10;1.02;;;;;;;10.87;100.00;100785.34;4824151;29;20069;-81
2021/05/29 04:58:04;;;;;;;3.00;1.42;;;;;;;10.97;100.00;100794.56;4823253;29;20045;-81
2021/05/29 05:01:09;;;;;;;4.68;1.17;;;;;;;11.07;100.00;100787.78;4824243;29;20065;-82
2021/05/29 05:04:13;;;;;;;3.83;0.95;;;;;;;11.18;100.00;100793.75;4824128;29;20042;-81
2021/05/29 05:07:17;;;;;;;1.45;0.82;;;;;;;11.29;100.00;100799.69;4812786;29;20046;-81
2021/05/29 05:10:20;;;;;;;0.98;0.45;;;;;;;11.41;100.00;100807.19;4824042;29;20041;-81
2021/05/29 05:13:24;;;;;;;1.63;0.93;;;;;;;11.54;100.00;100805.09;4812690;29;20049;-82
2021/05/29 05:16:27;;;;;;;5.72;1.38;;;;;;;11.65;100.00;100802.63;4824052;29;20475;-81
2021/05/29 05:19:31;;;;;;;5.55;1.85;;;;;;;11.74;100.00;100797.09;4812680;29;20061;-81
2021/05/29 05:22:34;;;;;;;10.43;0.75;;;;;;;11.80;100.00;100812.00;4812358;29;20053;-81
2021/05/29 05:25:38;;;;;;;1.33;0.88;;;;;;;11.85;100.00;100811.41;4823889;29;20038;-82
2021/05/29 05:28:41;;;;;;;3.60;1.13;;;;;;;11.87;100.00;100808.94;4795731;29;20050;-82
2021/05/29 05:31:45;;;;;;;3.47;1.10;;;;;;;11.81;100.00;100819.16;4805544;29;20050;-82
2021/05/29 05:34:49;;;;;;;3.50;0.90;;;;;;;11.78;100.00;100820.06;4805558;29;20404;-82
2021/05/29 05:42:27;;;;;;;2.08;1.48;;;;;;;11.74;100.00;100830.59;4806486;29;20058;-82
2021/05/29 05:45:30;;;;;;;10.07;1.48;;;;;;;11.72;100.00;100826.72;4806426;29;20054;-83
2021/05/29 05:48:33;;;;;;;3.47;1.10;;;;;;;11.70;100.00;100835.53;4794606;29;20412;-82
2021/05/29 05:51:37;;;;;;;1.13;0.88;;;;;;;11.70;100.00;100834.75;4805425;29;20519;-82
2021/05/29 05:54:40;;;;;;;3.85;1.92;;;;;;;11.72;100.00;100843.44;4805485;29;20046;-82
2021/05/29 05:57:44;;;;;;;2.58;0.65;;;;;;;11.74;100.00;100844.56;4794289;29;20049;-82
2021/05/29 06:00:48;;;;;;;3.58;1.20;;;;;;;11.74;100.00;100852.91;4805411;29;20058;-81
2021/05/29 06:03:52;;;;;;;4.57;0.95;;;;;;;11.82;100.00;100845.06;4805209;29;20070;-81
2021/05/29 06:06:56;;;;;;;5.20;1.15;;;;;;;11.88;100.00;100849.56;4794066;29;20389;-81
2021/05/29 06:09:59;;;;;;;3.42;1.13;;;;;;;11.95;100.00;100848.50;4797609;29;20512;-80
2021/05/29 06:13:02;;;;;;;3.65;1.27;;;;;;;12.02;100.00;100854.56;4808681;29;20046;-81
2021/05/29 06:19:28;;;;;;;3.55;1.45;;;;;;;12.22;100.00;100864.53;4808657;29;20054;-80
2021/05/29 06:22:32;;;;;;;4.38;1.45;;;;;;;12.34;100.00;100866.44;4812375;29;20054;-81
2021/05/29 06:25:35;;;;;;;4.50;1.92;;;;;;;12.44;100.00;100865.19;4811728;29;20384;-82
2021/05/29 06:28:39;;;;;;;1.30;0.60;;;;;;;12.55;100.00;100868.31;4797507;29;20038;-80
2021/05/29 06:31:43;;;;;;;4.53;1.38;;;;;;;12.62;100.00;100876.41;4807619;29;20038;-82
2021/05/29 06:34:47;;;;;;;4.05;1.00;;;;;;;12.72;100.00;100875.16;4807380;29;20049;-81
2021/05/29 06:37:51;;;;;;;2.53;0.95;;;;;;;12.77;100.00;100872.53;4796585;29;20046;-81
2021/05/29 06:40:54;;;;;;;3.83;0.98;;;;;;;12.85;100.00;100870.19;4806370;29;20050;-81
2021/05/29 06:43:58;;;;;;;2.63;1.38;;;;;;;12.95;100.00;100866.91;4807209;29;20079;-82
2021/05/29 06:47:03;;;;;;;3.10;1.35;;;;;;;13.11;100.00;100868.66;4807331;29;20507;-81
2021/05/29 06:50:08;;;;;;;3.17;1.17;;;;;;;13.25;100.00;100873.59;4803621;29;20042;-80
2021/05/29 06:53:13;;;;;;;3.20;1.38;;;;;;;13.37;100.00;100874.66;4796761;29;20046;-80
2021/05/29 06:59:39;;;;;;;1.90;1.27;;;;;;;13.45;100.00;100887.84;4807655;29;20051;-81
2021/05/29 07:02:43;;;;;;;4.65;1.15;;;;;;;13.45;100.00;100887.84;4808927;29;20042;-81
2021/05/29 07:05:47;;;;;;;3.70;1.33;;;;;;;13.47;100.00;100890.19;4807675;29;20053;-80
2021/05/29 07:23:03;;;;;;;2.30;0.65;;;;;;;13.35;100.00;100917.09;4807410;29;20066;-80
2021/05/29 07:26:06;;;;;;;5.85;1.33;;;;;;;13.32;100.00;100922.88;4807500;29;20376;-80
2021/05/29 07:29:10;;;;;;;3.00;1.15;;;;;;;13.29;100.00;100932.97;4789151;30;20065;-81
2021/05/29 07:32:14;;;;;;;1.38;0.55;;;;;;;13.24;100.00;100916.81;4788386;30;20537;-80
2021/05/29 07:35:17;;;;;;;5.03;1.80;;;;;;;13.23;100.00;100934.06;4777915;30;20046;-80
2021/05/29 07:38:22;;;;;;;2.40;0.75;;;;;;;13.20;100.00;100929.38;4789269;30;20042;-80
2021/05/29 07:41:27;;;;;;;1.60;0.60;;;;;;;13.16;100.00;100935.16;4790145;30;20050;-80
2021/05/29 07:44:30;;;;;;;2.47;1.17;;;;;;;13.14;100.00;100929.25;4789702;30;20389;-80
2021/05/29 07:47:34;;;;;;;3.58;1.45;;;;;;;13.14;100.00;100939.66;4788815;30;20516;-80
2021/05/29 07:54:08;;;;;;;3.58;0.88;;;;;;;13.19;100.00;100941.84;4791470;30;20042;-79
2021/05/29 07:57:11;;;;;;;4.75;1.13;;;;;;;13.22;100.00;100946.47;4791382;30;20050;-80
2021/05/29 08:00:22;;;;;;;4.95;1.20;;;;;;;13.26;100.00;100947.88;4789231;30;20050;-80
2021/05/29 08:03:26;;;;;;;1.20;0.50;;;;;;;13.32;100.00;100948.03;4789427;30;20051;-80
2021/05/29 08:06:30;;;;;;;3.28;1.23;;;;;;;13.42;100.00;100949.56;4789374;30;20046;-80
2021/05/29 08:09:34;;;;;;;3.92;1.20;;;;;;;13.59;100.00;100959.19;4788601;30;20046;-80
2021/05/29 08:12:37;;;;;;;4.30;1.45;;;;;;;13.77;100.00;100959.16;4777361;30;20046;-80
2021/05/29 08:15:42;;;;;;;3.33;0.73;;;;;;;13.92;100.00;100953.66;4789841;30;20050;-79
2021/05/29 08:18:46;;;;;;;4.28;1.85;;;;;;;14.04;100.00;100949.88;4789950;30;20046;-80
2021/05/29 08:21:50;;;;;;;8.25;1.83;;;;;;;14.21;100.00;100948.25;4790204;30;20054;-80
2021/05/29 08:24:53;;;;;;;5.07;1.65;;;;;;;14.34;100.00;100958.03;4790105;30;20046;-80
2021/05/29 08:27:57;;;;;;;3.55;1.38;;;;;;;14.44;100.00;100956.72;4811664;29;20049;-80
2021/05/29 08:31:01;;;;;;;5.38;2.30;;;;;;;14.51;100.00;100961.19;4825870;29;20043;-80
2021/05/29 08:34:04;;;;;;;5.07;2.28;;;;;;;14.58;100.00;100963.66;4825976;29;20045;-79
2021/05/29 08:37:08;;;;;;;12.48;2.83;;;;;;;14.71;100.00;100958.59;4814660;29;20081;-80
2021/05/29 08:40:13;;;;;;;8.20;2.83;;;;;;;14.88;100.00;100958.94;4814299;29;20042;-79
2021/05/29 08:43:17;;;;;;;5.30;1.75;;;;;;;14.97;100.00;100965.25;4825712;29;20045;-79
2021/05/29 08:46:21;;;;;;;1.98;1.00;;;;;;;15.05;100.00;100972.03;4814403;29;20045;-81
2021/05/29 08:49:25;;;;;;;2.97;1.65;;;;;;;15.13;100.00;100967.63;4815165;29;20491;-81
2021/05/29 08:52:35;;;;;;;7.88;1.83;;;;;;;15.17;100.00;100968.22;4826615;29;20053;-80
2021/05/29 08:55:39;;;;;;;3.25;2.15;;;;;;;15.12;100.00;100970.91;4830367;29;20038;-81
2021/05/29 08:58:43;;;;;;;3.63;1.73;;;;;;;14.99;100.00;100979.56;4832412;29;20050;-81
2021/05/29 09:01:47;;;;;;;5.65;2.00;;;;;;;14.93;100.00;100981.50;4820777;29;20200;-82
2021/05/29 09:05:19;;;;;;;8.65;2.38;;;;;;;14.89;100.00;100991.34;4825672;29;20042;-82
2021/05/29 09:08:25;;;;;;;3.95;1.58;;;;;;;14.86;100.00;100987.47;4825049;29;20049;-82
2021/05/29 09:11:49;;;;;;;1.67;0.75;;;;;;;14.90;100.00;100990.84;4824981;29;20081;-81
2021/05/29 09:14:54;;;;;;;4.00;1.75;;;;;;;14.90;100.00;100998.53;4825315;29;20045;-82
2021/05/29 09:17:58;;;;;;;4.13;1.35;;;;;;;14.93;100.00;100995.53;4814382;29;20510;-82
2021/05/29 09:21:10;;;;;;;7.18;1.75;;;;;;;14.96;100.00;101000.19;4825337;29;20062;-81
2021/05/29 09:24:16;;;;;;;8.88;1.67;;;;;;;15.01;100.00;100998.72;4814250;29;20053;-81
2021/05/29 09:27:20;;;;;;;9.13;1.58;;;;;;;15.05;100.00;101005.72;4807296;29;20059;-82
2021/05/29 09:30:50;;;;;;;4.15;1.67;;;;;;;15.08;100.00;101015.19;4806735;29;20507;-82
2021/05/29 09:33:56;;;;;;;6.35;1.67;;;;;;;15.12;100.00;101008.16;4795804;29;20065;-81
2021/05/29 09:37:24;;;;;;;3.35;1.23;;;;;;;15.22;100.00;101010.91;4800623;29;20050;-81
2021/05/29 09:40:30;;;;;;;6.15;1.35;;;;;;;15.29;100.00;101019.72;4806508;29;20053;-80
2021/05/29 09:44:14;;;;;;;2.40;1.10;;;;;;;15.42;100.00;101019.47;4808379;29;20062;-80
2021/05/29 09:47:19;;;;;;;3.10;1.10;;;;;;;15.52;100.00;101020.97;4812654;29;20042;-80
2021/05/29 09:50:22;;;;;;;2.80;1.60;;;;;;;15.59;100.00;101023.41;4811098;29;20046;-81
2021/05/29 09:53:27;;;;;;;2.75;0.98;;;;;;;15.67;100.00;101027.38;4810256;29;20512;-80
2021/05/29 09:56:40;;;;;;;4.18;1.83;;;;;;;15.78;100.00;101024.78;4798774;29;20057;-80
2021/05/29 09:59:58;;;;;;;3.97;1.30;;;;;;;15.90;100.00;101029.34;4810187;29;20061;-83
2021/05/29 10:03:03;;;;;;;3.50;1.15;;;;;;;16.01;100.00;101035.16;4799109;29;20066;-83
2021/05/29 10:06:11;;;;;;;5.22;2.10;;;;;;;16.13;100.00;101036.91;4810454;29;20050;-80
2021/05/29 10:09:14;;;;;;;3.80;1.35;;;;;;;16.20;100.00;101028.06;4810083;29;20061;-80
2021/05/29 10:12:18;;;;;;;5.88;2.55;;;;;;;16.28;100.00;101026.44;4809739;29;20045;-81
2021/05/29 10:15:22;;;;;;;1.52;0.80;;;;;;;16.44;100.00;101022.31;4808925;29;20051;-81
2021/05/29 10:18:25;;;;;;;4.22;1.17;;;;;;;16.65;100.00;101027.53;4797252;29;20057;-80
2021/05/29 10:21:31;;;;;;;3.45;1.23;;;;;;;16.70;100.00;101033.75;4808286;29;20519;-80
2021/05/29 10:24:36;;;;;;;6.18;1.30;;;;;;;16.84;100.00;101030.88;4807342;29;20070;-80
2021/05/29 10:27:44;;;;;;;2.67;0.95;;;;;;;17.07;100.00;101034.75;4815677;29;20045;-80
2021/05/29 10:30:50;;;;;;;3.10;1.30;;;;;;;17.08;100.00;101036.31;4825850;29;20061;-80
2021/05/29 10:33:54;;;;;;;1.08;0.68;;;;;;;17.14;100.00;101045.59;4825312;29;20073;-80
2021/05/29 10:36:58;;;;;;;2.20;1.08;;;;;;;17.37;100.00;101036.16;4825861;29;20041;-80
2021/05/29 10:40:17;;;;;;;4.32;1.38;;;;;;;17.61;100.00;101035.94;4826989;29;20069;-80
2021/05/29 10:43:31;;;;;;;5.57;0.95;;;;;;;17.83;100.00;101034.16;4827452;29;20049;-81
2021/05/29 10:46:35;;;;;;;4.72;1.38;;;;;;;17.98;100.00;101037.63;4814366;29;20057;-80
2021/05/29 10:49:51;;;;;;;4.93;1.48;;;;;;;17.87;100.00;101040.34;4826786;29;20042;-80
2021/05/29 10:52:54;;;;;;;3.92;1.48;;;;;;;17.80;100.00;101037.94;4827438;29;20049;-82
2021/05/29 10:56:19;;;;;;;5.22;0.60;;;;;;;17.99;100.00;101042.00;4825040;29;20049;-80
2021/05/29 10:59:35;;;;;;;2.08;0.60;;;;;;;18.35;100.00;101051.00;4814328;29;20061;-81
2021/05/29 11:02:38;;;;;;;5.60;1.48;;;;;;;18.43;100.00;101035.94;4826844;29;20053;-82
2021/05/29 11:05:46;;;;;;;3.97;1.05;;;;;;;18.26;100.00;101039.94;4815465;29;20064;-82
2021/05/29 11:08:55;;;;;;;2.15;0.45;;;;;;;17.96;100.00;101037.34;4829089;29;20417;-81
2021/05/29 11:12:02;;;;;;;2.83;0.90;;;;;;;17.69;100.00;101032.22;4820347;29;20049;-80
2021/05/29 11:15:05;;;;;;;3.58;0.47;;;;;;;17.49;100.00;101037.84;4828231;29;20061;-82
2021/05/29 11:18:10;;;;;;;2.13;0.55;;;;;;;17.23;100.00;101032.16;4813526;29;20073;-82
2021/05/29 11:21:13;;;;;;;2.13;0.85;;;;;;;17.15;100.00;101042.28;4784205;29;1217682;-82
2021/05/29 11:24:17;;;;;;;4.28;0.68;;;;;;;17.20;100.00;101040.81;4814786;29;20043;-82
2021/05/29 11:27:26;;;;;;;3.72;0.77;;;;;;;17.21;100.00;101043.16;4820685;29;20045;-84
2021/05/29 11:30:33;;;;;;;9.85;1.10;;;;;;;17.19;100.00;101039.28;4797432;29;20046;-83
2021/05/29 11:33:37;;;;;;;1.58;0.85;;;;;;;17.23;100.00;101048.28;4796965;29;20037;-81
2021/05/29 11:36:44;;;;;;;1.40;0.52;;;;;;;17.36;100.00;101046.66;4808580;29;20046;-82
2021/05/29 11:39:55;;;;;;;3.22;1.10;;;;;;;17.51;100.00;101049.44;4807762;29;20072;-82
2021/05/29 11:42:58;;;;;;;3.55;0.80;;;;;;;17.65;100.00;101040.09;4807529;29;20054;-83
2021/05/29 11:46:04;;;;;;;1.35;0.80;;;;;;;17.61;100.00;101045.19;4798763;29;20058;-81
2021/05/29 11:49:08;;;;;;;2.95;0.90;;;;;;;17.50;100.00;101056.31;4796305;29;20070;-81
2021/05/29 11:52:11;;;;;;;3.95;0.77;;;;;;;17.48;100.00;101064.47;4808010;29;20055;-81
2021/05/29 11:55:15;;;;;;;1.23;0.68;;;;;;;17.50;100.00;101050.69;4807728;29;20402;-81
2021/05/29 11:58:19;;;;;;;3.28;0.65;;;;;;;17.74;100.00;101064.53;4796723;29;20046;-82
2021/05/29 12:01:30;;;;;;;6.90;0.50;;;;;;;18.02;100.00;101055.09;4806644;29;20069;-82
2021/05/29 12:04:35;;;;;;;1.75;0.93;;;;;;;18.34;100.00;101061.53;4806697;29;20046;-83
2021/05/29 12:12:14;;;;;;;0.85;0.35;;;;;;;19.17;100.00;101053.63;4802724;29;20058;-80
2021/05/29 12:15:18;;;;;;;1.10;0.20;;;;;;;19.34;100.00;101050.91;4795302;29;20061;-80
2021/05/29 12:18:21;;;;;;;3.17;0.55;;;;;;;19.59;100.00;101056.41;4805441;29;20054;-81
2021/05/29 12:21:58;;;;;;;4.85;0.63;;;;;;;19.68;100.00;101058.25;4806287;29;20063;-80
2021/05/29 12:25:09;;;;;;;19.60;5.13;;;;;;;19.68;100.00;101059.00;4795148;29;20388;-81
2021/05/29 12:28:13;;;;;;;11.07;2.50;;;;;;;19.81;100.00;101057.75;4819288;29;20042;-81
2021/05/29 12:31:18;;;;;;;32.50;7.18;;;;;;;20.07;100.00;101055.50;4824470;29;20034;-82
2021/05/29 12:34:24;;;;;;;4.90;1.90;;;;;;;20.18;100.00;101059.09;4824333;29;20039;-81
2021/05/29 12:37:30;;;;;;;6.53;1.60;;;;;;;20.25;100.00;101055.00;4812966;29;20042;-79
2021/05/29 12:40:33;;;;;;;17.67;2.50;;;;;;;20.42;100.00;101058.63;4824369;29;20049;-75
2021/05/29 12:43:41;;;;;;;2.05;0.57;;;;;;;20.56;100.00;101057.59;4824066;29;20038;-77
2021/05/29 12:46:52;;;;;;;1.23;0.75;;;;;;;20.58;100.00;101063.50;4824295;29;20042;-78
2021/05/29 12:49:57;;;;;;;2.27;0.70;;;;;;;20.61;100.00;101059.66;4809001;29;20045;-80
2021/05/29 12:53:13;;;;;;;3.97;0.75;;;;;;;20.54;100.00;101065.03;4806223;29;20282;-79
2021/05/29 12:56:19;;;;;;;3.92;0.63;;;;;;;20.65;100.00;101065.03;4788104;30;20058;-86
2021/05/29 12:59:29;;;;;;;2.45;0.40;;;;;;;20.50;100.00;101070.19;4806888;29;20054;-84
2021/05/29 13:12:20;;;;;;;1.83;0.40;;;;;;;20.57;100.00;101053.47;4806316;29;20053;-85
2021/05/29 13:15:24;;;;;;;2.03;0.40;;;;;;;20.52;100.00;101051.41;4805999;29;20783;-84
2021/05/29 13:18:29;;;;;;;3.08;0.63;;;;;;;20.43;100.00;101060.16;4803658;29;20511;-86
2021/05/29 13:21:34;;;;;;;3.65;0.20;;;;;;;20.07;100.00;101066.81;4826374;29;20145;-85
2021/05/29 13:24:53;;;;;;;1.27;0.30;;;;;;;19.78;100.00;101065.19;4816306;29;20388;-85
2021/05/29 13:27:57;;;;;;;3.72;0.38;;;;;;;19.64;100.00;101064.13;4821020;29;20059;-85
2021/05/29 13:31:01;;;;;;;1.00;0.17;;;;;;;19.76;100.00;101067.75;4798332;29;20507;-77
2021/05/29 13:34:04;;;;;;;0.35;0.13;;;;;;;19.72;100.00;101063.63;4808925;29;20061;-81
2021/05/29 13:37:08;;;;;;;2.20;0.65;;;;;;;19.74;100.00;101061.84;4809334;29;20063;-79
2021/05/29 13:49:35;;;;;;;0.20;0.10;;;;;;;20.34;100.00;101060.41;4867532;24;20045;-45
2021/05/29 13:52:39;;;;;;;1.27;0.30;;;;;;;20.40;100.00;101061.19;4789118;29;20428;-48
2021/05/29 13:55:43;;;;;;;0.70;0.20;;;;;;;20.63;100.00;101044.97;4790313;30;20074;-48
2021/05/29 13:58:49;;;;;;;1.70;0.10;;;;;;;20.80;100.00;101054.97;4772589;30;20059;-48
2021/05/29 14:01:53;;;;;;;0.30;0.20;;;;;;;20.88;100.00;101053.16;4772227;30;20058;-48
2021/05/29 14:04:57;;;;;;;0.57;0.08;;;;;;;21.18;100.00;101050.50;4772332;30;20054;-48
2021/05/29 14:08:01;;;;;;;6.50;1.20;;;;;;;21.31;100.00;101042.22;4772490;29;20163;-48
2021/05/29 14:11:08;;;;;;;5.55;0.57;;;;;;;21.08;100.00;101057.78;4806664;29;20061;-47
2021/05/29 14:14:14;;;;;;;4.72;0.75;;;;;;;21.00;100.00;101054.69;4790145;30;20058;-48
2021/05/29 14:17:19;;;;;;;0.40;0.28;;;;;;;20.94;100.00;101048.25;4789573;30;20519;-47
2021/05/29 14:20:34;;;;;;;;;;;;;;;;;;;;;
2021/05/29 14:23:52;;;;;;;;;;;;;;;;;;;;;
2021/05/29 14:26:58;;;;;;;0.88;0.10;;;;;;;20.88;100.00;101053.16;4789745;30;20047;-48
2021/05/29 14:30:03;;;;;;;1.10;0.32;;;;;;;21.17;100.00;101048.22;4788035;29;20054;-48
2021/05/29 14:33:07;;;;;;;0.85;0.10;;;;;;;21.27;100.00;101052.31;4789847;30;20054;-48
2021/05/29 14:36:11;;;;;;;1.17;0.22;;;;;;;21.38;100.00;101046.56;4789455;30;20073;-47
2021/05/29 14:39:15;;;;;;;2.47;0.10;;;;;;;21.19;100.00;101048.47;4789554;30;20066;-52
2021/05/29 14:42:28;;;;;;;0.25;0.10;;;;;;;21.14;100.00;101047.97;4789744;30;20433;-52
2021/05/29 14:45:36;;;;;;;0.47;0.00;;;;;;;20.88;100.00;101055.22;4789384;30;20073;-51
2021/05/29 14:48:42;;;;;;;3.28;0.10;;;;;;;21.19;100.00;101045.63;4789260;30;20066;-52
2021/05/29 14:51:49;;;;;;;0.43;0.30;;;;;;;21.36;100.00;101049.94;4789125;29;20054;-52
2021/05/29 14:54:55;;;;;;;0.88;0.10;;;;;;;21.47;100.00;101043.44;4789692;30;20070;-51
2021/05/29 14:58:01;;;;;;;2.97;0.10;;;;;;;21.30;95.97;101039.91;4789400;30;20074;-53
2021/05/29 15:01:32;;;;;;;3.50;0.20;;;;;;;21.28;100.00;101042.50;4788565;30;20062;-51
2021/05/29 15:05:01;;;;;;;0.50;0.20;;;;;;;21.67;100.00;101048.75;4789537;30;20059;-51
2021/05/29 15:09:01;;;;;;;4.88;0.30;;;;;;;21.83;100.00;101047.91;4789667;30;20058;-53
2021/05/29 15:12:10;;;;;;;1.23;0.10;;;;;;;21.65;100.00;101051.34;4709233;29;20056;-52
2021/05/29 15:15:52;;;;;;;;;;;;;;;21.62;100.00;101041.03;4788994;29;20069;-52